Meteo Giornale » Osservazioni meteo Stati Uniti (USA) » Burns
ore: 22:53 - Osservazioni Meteo Burns
Lat. 43° 35' N Lon. 118° 57' W Alt. 1263 metri s.l.m.
17 °C
Sereno
Temp. 24 Ore
2 °C
30 °C
Est
7.4 Km/h
Dew point -4 °C
Umidità 23 %
Visibilità 10 Km
Il sole sorge alle ore 06:18
Il sole tramonta alle ore 19:33
| Data e Ora | Cielo e Fenomeni | T °C | DP °C | Um. % | Pres. hPa | Vis. km | Vento km/h | |
|---|---|---|---|---|---|---|---|---|
| Oggi h: 22:53 | Sereno | 17 | -4 | 23 | 1011 | 10 | E 7.4 | |
| Oggi h: 21:53 | Sereno | 20 | -5 | 18 | 1011 | 10 | E/NE 13 | |
| Oggi h: 20:53 | Sereno | 21 | -4 | 18 | 1011 | 10 | E/NE 16.7 | |
| Oggi h: 19:53 | Sereno | 22 | -4 | 17 | 1011 | 10 | E/NE 16.7 | |
| Oggi h: 18:53 | Sereno | 25 | -3 | 15 | 1010 | 10 | E 20.3 | |
| Oggi h: 17:53 | Sereno | 28 | -3 | 12 | 1011 | 10 | E 22.2 | |
| Oggi h: 16:53 | Sereno | 29 | -4 | 11 | 1011 | 10 | E/NE 14.8 | |
| Oggi h: 15:53 | Sereno | 30 | -4 | 10 | 1012 | 10 | E/SE 13 | |
| Oggi h: 14:53 | Sereno | 29 | -5 | 10 | 1013 | 10 | N 0 | |
| Oggi h: 13:53 | Sereno | 28 | -5 | 11 | 1014 | 10 | N 0 | |
| Oggi h: 12:53 | Sereno | 27 | -4 | 12 | 1015 | 10 | E 13 | |
| Oggi h: 11:53 | Sereno | 25 | -4 | 14 | 1016 | 10 | E 14.8 | |
| Oggi h: 10:53 | Sereno | 23 | -5 | 14 | 1016 | 10 | E 16.7 | |
| Oggi h: 09:53 | Sereno | 22 | -6 | 14 | 1017 | 10 | E 18.5 | |
| Oggi h: 08:53 | Sereno | 17 | -2 | 27 | 1017 | 10 | N 5.5 | |
| Oggi h: 07:53 | Sereno | 12 | -4 | 32 | 1017 | 10 | N 5.5 | |
| Oggi h: 06:53 | Sereno | 7 | -6 | 38 | 1017 | 10 | NO 13 | |
| Oggi h: 05:53 | Sereno | 4 | -6 | 47 | 1017 | 10 | NO 11.1 | |
| Oggi h: 04:53 | Sereno | 4 | -7 | 44 | 1017 | 10 | O/NO 13 | |
| Oggi h: 03:53 | Sereno | 5 | -7 | 41 | 1017 | 10 | O/NO 11.1 | |
| Oggi h: 02:53 | Sereno | 4 | -7 | 44 | 1017 | 10 | NO 7.4 | |
| Oggi h: 01:53 | Sereno | 2 | -6 | 55 | 1018 | 10 | N 9.3 | |
| Oggi h: 00:53 | Sereno | 2 | -9 | 43 | 1018 | 10 | N 0 | |
| Ieri h: 23:53 | Sereno | 4 | -7 | 44 | 1018 | 10 | N 0 | |



